ADDS METAR Data INFO
IDs: Format: Raw Decoded Include TAF

Data at: 1337 UTC 23 Jun 2018

KGBK 231315Z AUTO 17018KT 10SM FEW017 FEW025 28/24 A2998 RMK A01
KGBK 231255Z AUTO 17018KT 10SM SCT019 SCT025 BKN030 28/25 A2998 RMK A01
KGBK 231235Z AUTO 16018KT 10SM SCT020 SCT031 28/24 A2996 RMK A01
KGBK 231215Z AUTO 16019KT 10SM SCT020 SCT027 28/24 A2996 RMK A01
KGBK 231155Z AUTO 16018KT 10SM BKN020 BKN026 28/24 A2995 RMK A01
KGBK 231135Z AUTO 16016KT 10SM SCT018 SCT023 28/24 A2994 RMK A01
KGBK 231115Z AUTO 15017KT 10SM FEW019 28/24 A2993 RMK A01
KGBK 231055Z AUTO 16016KT 10SM CLR 28/24 A2993 RMK A01
KGBK 231035Z AUTO 16017KT 10SM CLR 28/24 A2993 RMK A01
KGBK 231015Z AUTO 15016KT 10SM CLR 28/24 A2992 RMK A01
KGBK 230955Z AUTO 16018KT 10SM CLR 28/24 A2992 RMK A01
KGBK 230935Z AUTO 16019KT 10SM CLR 28/24 A2992 RMK A01
KGBK 230915Z AUTO 16019KT 10SM CLR 27/24 A2991 RMK A01
KGBK 230855Z AUTO 16017KT 10SM CLR 28/25 A2992 RMK A01
KGBK 230835Z AUTO 16018KT 10SM CLR 28/25 A2992 RMK A01
KGBK 230815Z AUTO 16018KT 10SM CLR 28/25 A2993 RMK A01
KGBK 230755Z AUTO 16018KT 10SM CLR 28/24 A2993 RMK A01
KGBK 230735Z AUTO 16019KT 10SM CLR 28/25 A2993 RMK A01
KGBK 230715Z AUTO 16018KT 10SM CLR 28/25 A2994 RMK A01
KGBK 230655Z AUTO 16019KT 10SM CLR 28/25 A2994 RMK A01
KGBK 230635Z AUTO 16021KT 10SM CLR 28/25 A2994 RMK A01
KGBK 230615Z AUTO 16020KT 10SM CLR 28/24 A2995 RMK A01
KGBK 230555Z AUTO 16020KT 10SM CLR 28/25 A2995 RMK A01
KGBK 230535Z AUTO 16019KT 10SM CLR 28/25 A2995 RMK A01
KGBK 230515Z AUTO 16019KT 10SM CLR 28/25 A2995 RMK A01
KGBK 230455Z AUTO 16019KT 10SM BKN049 28/25 A2995 RMK A01
KGBK 230435Z AUTO 15016KT 10SM BKN048 28/25 A2996 RMK A01
KGBK 230415Z AUTO 15011KT 10SM FEW048 28/24 A2996 RMK A01
KGBK 230355Z AUTO 16012KT 10SM CLR 28/25 A2995 RMK A01
KGBK 230335Z AUTO 16013KT 10SM SCT048 28/24 A2995 RMK A01
KGBK 230315Z AUTO 16013KT 10SM FEW016 FEW028 BKN048 28/25 A2995 RMK A01
KGBK 230255Z AUTO 17011KT 10SM FEW015 FEW028 28/25 A2995 RMK A01
KGBK 230235Z AUTO 16011KT 10SM FEW046 28/25 A2993 RMK A01
KGBK 230215Z AUTO 16010KT 10SM FEW046 28/25 A2993 RMK A01
KGBK 230155Z AUTO 18008KT 10SM CLR 28/25 A2992 RMK A01
KGBK 230130Z AUTO 17010KT 10SM CLR 28/25 A2991 RMK A01
KGBK 230115Z AUTO 17010KT 10SM CLR 28/25 A2992 RMK A01
KGBK 230055Z AUTO 16010KT 10SM FEW016 FEW022 28/25 A2991 RMK A01
KGBK 230035Z AUTO 17013KT 10SM FEW015 28/25 A2991 RMK A01
KGBK 230015Z AUTO 16011KT 10SM FEW015 FEW021 28/25 A2992 RMK A01
KGBK 222355Z AUTO 16010KT 10SM SCT016 SCT021 28/25 A2991 RMK A01
KGBK 222335Z AUTO 17011KT 10SM SCT017 SCT025 28/25 A2991 RMK A01
KGBK 222315Z AUTO 16009KT 10SM FEW017 FEW025 28/25 A2992 RMK A01
KGBK 222255Z AUTO 16006KT 10SM CLR 28/25 A2992 RMK A01
KGBK 222235Z AUTO 17006KT 10SM CLR 28/25 A2993 RMK A01
KGBK 222215Z AUTO 17008KT 10SM CLR 28/25 A2994 RMK A01
KGBK 222155Z AUTO 17009KT 10SM CLR 28/25 A2995 RMK A01
KGBK 222135Z AUTO 16009KT 10SM CLR 28/25 A2994 RMK A01
KGBK 222115Z AUTO 16008KT 10SM CLR 28/25 A2996 RMK A01
KGBK 222055Z AUTO 16008KT FEW019 SCT024 SCT028 28/25 A2996 RMK A01
KGBK 222035Z AUTO 16010KT 10SM BKN019 BKN024 BKN031 28/25 A2996 RMK A01
KGBK 222015Z AUTO 17009KT 10SM SCT019 SCT031 28/25 A2996 RMK A01
KGBK 221955Z AUTO 16010KT 10SM FEW018 28/25 A2997 RMK A01
KGBK 221935Z AUTO 16008KT 10SM CLR 28/25 A2997 RMK A01
KGBK 221915Z AUTO 16011KT 10SM CLR 28/24 A2997 RMK A01
KGBK 221855Z AUTO 16009KT 10SM CLR 28/24 A2997 RMK A01
KGBK 221835Z AUTO 16010KT 10SM CLR 28/24 A2998 RMK A01
KGBK 221815Z AUTO 17011KT 10SM CLR 28/24 A2998 RMK A01
KGBK 221755Z AUTO 17011KT 10SM FEW019 FEW025 28/24 A2999 RMK A01
KGBK 221735Z AUTO 16012KT 10SM CLR 28/24 A2999 RMK A01
KGBK 221715Z AUTO 16013KT 10SM FEW018 28/24 A2999 RMK A01
KGBK 221655Z AUTO 17012KT 10SM FEW018 28/24 A2999 RMK A01
KGBK 221635Z AUTO 16013KT 10SM FEW018 28/24 A2999 RMK A01
KGBK 221615Z AUTO 16014KT 10SM CLR 28/24 A3000 RMK A01
KGBK 221555Z AUTO 16013KT 10SM FEW018 28/24 A3000 RMK A01
KGBK 221535Z AUTO 17012KT 10SM FEW020 28/24 A3000 RMK A01
KGBK 221515Z AUTO 16011KT 10SM CLR 28/24 A3000 RMK A01
KGBK 221455Z AUTO 16009KT 10SM CLR 28/24 A3000 RMK A01
KGBK 221435Z AUTO 16010KT 10SM CLR 28/24 A3000 RMK A01
KGBK 221415Z AUTO 17009KT 10SM CLR 28/24 A3000 RMK A01
KGBK 221355Z AUTO 18009KT 10SM CLR 28/24 A3000 RMK A01
KGBK 221335Z AUTO 17011KT 10SM CLR 27/24 A2999 RMK A01
KGBK 221315Z AUTO 16010KT 10SM FEW024 27/24 A2999 RMK A01
KGBK 221255Z AUTO 17009KT 10SM CLR 27/23 A2999 RMK A01
KGBK 221235Z AUTO 16011KT 10SM FEW020 27/23 A2998 RMK A01
KGBK 221215Z AUTO 16011KT 10SM SCT020 SCT029 27/24 A2998 RMK A01
KGBK 221155Z AUTO 16011KT 10SM FEW019 FEW030 27/24 A2997 RMK A01
KGBK 221135Z AUTO 16013KT 10SM SCT018 SCT023 SCT033 27/24 A2997 RMK A01
KGBK 221115Z AUTO 16012KT 10SM CLR 27/24 A2996 RMK A01
KGBK 221055Z AUTO 16011KT 10SM FEW019 FEW024 FEW029 27/24 A2996 RMK A01
KGBK 221035Z AUTO 16011KT 10SM FEW026 27/24 A2996 RMK A01
KGBK 221015Z AUTO 17011KT 10SM FEW018 SCT026 27/24 A2995 RMK A01
KGBK 220955Z AUTO 16009KT 10SM SCT024 SCT031 27/24 A2994 RMK A01
KGBK 220935Z AUTO 16009KT 10SM CLR 27/24 A2994 RMK A01
KGBK 220915Z AUTO 16010KT 10SM CLR 27/24 A2993 RMK A01
KGBK 220855Z AUTO 16009KT 10SM CLR 27/24 A2994 RMK A01
KGBK 220835Z AUTO 16010KT 10SM CLR 27/24 A2993 RMK A01
KGBK 220815Z AUTO 16009KT 10SM CLR 27/24 A2994 RMK A01
KGBK 220755Z AUTO 17008KT 10SM CLR 27/24 A2995 RMK A01
KGBK 220735Z AUTO 16009KT 10SM FEW023 FEW028 27/24 A2995 RMK A01
KGBK 220715Z AUTO 15008KT 10SM CLR 27/24 A2995 RMK A01
KGBK 220655Z AUTO 16009KT 10SM CLR 27/24 A2995 RMK A01
KGBK 220635Z AUTO 15011KT 10SM CLR 27/24 A2995 RMK A01
KGBK 220615Z AUTO 16011KT 10SM FEW018 27/24 A2995 RMK A01
KGBK 220555Z AUTO 16010KT FEW017 27/24 A2995 RMK A01
KGBK 220535Z AUTO 14007KT 10SM CLR 27/24 A2996 RMK A01
KGBK 220515Z AUTO VRB06KT 10SM FEW018 27/24 A2996 RMK A01
KGBK 220455Z AUTO 14007KT 10SM CLR 27/24 A2996 RMK A01
KGBK 220435Z AUTO 14007KT 10SM CLR 27/24 A2996 RMK A01
KGBK 220415Z AUTO 13008KT 10SM CLR 28/24 A2996 RMK A01
KGBK 220355Z AUTO 14009KT 10SM CLR 28/24 A2996 RMK A01
KGBK 220335Z AUTO 14008KT 10SM CLR 28/24 A2995 RMK A01
KGBK 220315Z AUTO 13009KT 10SM CLR 28/24 A2995 RMK A01
KGBK 220255Z AUTO 14008KT 10SM CLR 28/24 A2994 RMK A01
KGBK 220235Z AUTO 13009KT 10SM CLR 28/24 A2995 RMK A01
KGBK 220215Z AUTO 13009KT 10SM CLR 28/24 A2994 RMK A01
KGBK 220155Z AUTO 12007KT 10SM CLR 28/24 A2994 RMK A01